createdAt,value
2023-06-11T00:01:58.399Z,8.75
2023-06-11T00:04:27.206Z,8.55
2023-06-11T00:06:54.881Z,8.30
2023-06-11T00:09:24.309Z,9.52
2023-06-11T00:11:51.517Z,9.02
2023-06-11T00:14:18.676Z,8.50
2023-06-11T00:16:47.200Z,8.80
2023-06-11T00:19:14.551Z,8.27
2023-06-11T00:21:44.813Z,9.05
2023-06-11T00:24:13.401Z,8.80
2023-06-11T00:26:41.517Z,8.52
2023-06-11T00:29:09.567Z,8.98
2023-06-11T00:31:37.170Z,8.70
2023-06-11T00:34:04.615Z,9.07
2023-06-11T00:36:33.922Z,8.98
2023-06-11T00:39:01.172Z,9.65
2023-06-11T00:41:30.987Z,9.73
2023-06-11T00:43:58.653Z,9.57
2023-06-11T00:46:27.648Z,9.63
2023-06-11T00:48:55.171Z,10.55
2023-06-11T00:51:26.498Z,10.02
2023-06-11T00:53:54.710Z,10.77
2023-06-11T00:56:22.205Z,10.05
2023-06-11T00:58:51.202Z,10.40
2023-06-11T01:01:27.282Z,9.90
2023-06-11T01:03:57.733Z,10.90
2023-06-11T01:06:29.626Z,9.93
2023-06-11T01:08:59.971Z,10.00
2023-06-11T01:11:28.535Z,10.32
2023-06-11T01:13:55.811Z,11.60
2023-06-11T01:16:57.428Z,11.07
2023-06-11T01:19:24.953Z,10.75
2023-06-11T01:21:55.633Z,9.77
2023-06-11T01:24:32.218Z,11.05
2023-06-11T01:27:11.079Z,11.43
2023-06-11T01:29:47.028Z,11.13
2023-06-11T01:32:15.596Z,11.43
2023-06-11T01:34:43.534Z,10.85
2023-06-11T01:37:10.837Z,10.80
2023-06-11T01:39:38.000Z,10.23
2023-06-11T01:42:06.641Z,10.65
2023-06-11T01:44:33.802Z,10.98
2023-06-11T01:47:01.081Z,11.55
2023-06-11T01:49:28.515Z,11.23
2023-06-11T01:51:56.151Z,9.65
2023-06-11T01:54:23.317Z,10.32
2023-06-11T01:56:50.554Z,11.30
2023-06-11T01:59:18.901Z,10.95
2023-06-11T02:01:46.236Z,11.57
2023-06-11T02:04:13.782Z,11.20
2023-06-11T02:06:41.507Z,11.00
2023-06-11T02:09:08.673Z,11.32
2023-06-11T02:11:35.899Z,11.80
2023-06-11T02:14:03.080Z,11.65
2023-06-11T02:16:30.393Z,11.82
2023-06-11T02:18:57.668Z,10.57
2023-06-11T02:21:24.879Z,11.43
2023-06-11T02:23:53.450Z,11.57
2023-06-11T02:26:20.745Z,10.50
2023-06-11T02:28:47.926Z,10.93
2023-06-11T02:31:15.091Z,11.75
2023-06-11T02:33:42.276Z,10.77
2023-06-11T02:36:09.634Z,11.00
2023-06-11T02:38:37.324Z,11.75
2023-06-11T02:41:04.538Z,11.93
2023-06-11T02:43:31.774Z,11.63
2023-06-11T02:45:59.221Z,12.25
2023-06-11T02:48:26.439Z,12.57
2023-06-11T02:50:53.658Z,12.50
2023-06-11T02:53:20.931Z,11.30
2023-06-11T02:55:48.352Z,11.82
2023-06-11T02:58:15.550Z,11.93
2023-06-11T03:00:42.718Z,11.80
2023-06-11T03:03:10.054Z,12.85
2023-06-11T03:05:37.231Z,12.00
2023-06-11T03:08:04.453Z,11.50
2023-06-11T03:10:31.591Z,11.30
2023-06-11T03:12:58.808Z,12.32
2023-06-11T03:15:25.972Z,12.93
2023-06-11T03:17:53.159Z,11.90
2023-06-11T03:20:20.554Z,12.68
2023-06-11T03:22:47.736Z,13.15
2023-06-11T03:25:14.965Z,12.55
2023-06-11T03:27:42.166Z,11.93
2023-06-11T03:30:09.874Z,11.52
2023-06-11T03:32:37.115Z,12.38
2023-06-11T03:35:04.371Z,12.15
2023-06-11T03:37:31.701Z,11.85
2023-06-11T03:39:58.970Z,12.40
2023-06-11T03:42:26.210Z,12.57
2023-06-11T03:44:55.370Z,12.73
2023-06-11T03:47:22.565Z,12.13
2023-06-11T03:49:50.408Z,12.40
2023-06-11T03:52:17.762Z,11.50
2023-06-11T03:54:45.209Z,12.88
2023-06-11T03:57:13.632Z,12.48
2023-06-11T03:59:41.167Z,12.55
2023-06-11T04:02:08.362Z,12.30
2023-06-11T04:04:35.725Z,12.13
2023-06-11T04:07:02.929Z,12.13
2023-06-11T04:09:30.440Z,12.02
2023-06-11T04:11:57.709Z,13.10
2023-06-11T04:14:24.886Z,12.70
2023-06-11T04:16:52.103Z,11.07
2023-06-11T04:19:19.667Z,13.13
2023-06-11T04:21:46.820Z,13.05
2023-06-11T04:24:14.039Z,12.77
2023-06-11T04:26:42.156Z,12.38
2023-06-11T04:29:10.081Z,11.68
2023-06-11T04:31:37.306Z,13.23
2023-06-11T04:34:08.226Z,12.05
2023-06-11T04:36:35.498Z,12.23
2023-06-11T04:39:03.190Z,12.50
2023-06-11T04:41:30.836Z,11.60
2023-06-11T04:44:01.715Z,12.15
2023-06-11T04:46:28.938Z,11.00
2023-06-11T04:49:00.098Z,10.75
2023-06-11T04:51:34.310Z,10.93
2023-06-11T04:54:03.040Z,11.48
2023-06-11T04:56:30.376Z,12.20
2023-06-11T04:58:57.583Z,11.35
2023-06-11T05:01:31.372Z,11.25
2023-06-11T05:03:58.630Z,9.75
2023-06-11T05:06:26.714Z,10.52
2023-06-11T05:08:53.949Z,11.00
2023-06-11T05:11:21.226Z,10.40
2023-06-11T05:13:48.396Z,10.05
2023-06-11T05:16:15.781Z,9.75
2023-06-11T05:18:43.057Z,9.98
2023-06-11T05:21:10.337Z,10.63
2023-06-11T05:23:37.581Z,9.68
2023-06-11T05:26:13.485Z,8.80
2023-06-11T05:28:41.259Z,8.35
2023-06-11T05:31:10.391Z,9.10
2023-06-11T05:33:37.667Z,9.45
2023-06-11T05:36:06.138Z,9.15
2023-06-11T05:38:33.326Z,8.15
2023-06-11T05:41:00.817Z,8.70
2023-06-11T05:43:27.969Z,8.00
2023-06-11T05:45:57.278Z,8.85
2023-06-11T05:48:28.396Z,7.72
2023-06-11T05:50:55.778Z,8.25
2023-06-11T05:53:22.955Z,8.77
2023-06-11T05:55:51.689Z,8.43
2023-06-11T05:58:20.227Z,8.57
2023-06-11T06:00:48.156Z,8.60
2023-06-11T06:03:15.460Z,8.27
2023-06-11T06:05:43.456Z,7.95
2023-06-11T06:08:10.702Z,7.88
2023-06-11T06:10:38.226Z,8.02
2023-06-11T06:13:05.406Z,7.65
2023-06-11T06:15:32.632Z,8.38
2023-06-11T06:17:59.899Z,7.45
2023-06-11T06:20:27.180Z,7.97
2023-06-11T06:22:54.444Z,8.05
2023-06-11T06:25:25.724Z,7.55
2023-06-11T06:27:52.918Z,7.30
2023-06-11T06:30:20.371Z,7.63
2023-06-11T06:32:48.452Z,7.22
2023-06-11T06:35:15.714Z,6.82
2023-06-11T06:37:42.893Z,7.00
2023-06-11T06:40:10.533Z,7.15
2023-06-11T06:42:38.406Z,6.97
2023-06-11T06:45:05.839Z,7.10
2023-06-11T06:47:33.105Z,7.03
2023-06-11T06:50:00.479Z,6.85
2023-06-11T06:52:27.714Z,6.32
2023-06-11T06:54:54.970Z,6.50
2023-06-11T06:57:22.195Z,5.95
2023-06-11T06:59:49.389Z,6.53
2023-06-11T07:02:16.630Z,6.63
2023-06-11T07:04:43.885Z,6.22
2023-06-11T07:07:11.122Z,5.82
2023-06-11T07:09:38.424Z,6.18
2023-06-11T07:12:06.147Z,5.85
2023-06-11T07:14:33.339Z,5.38
2023-06-11T07:17:00.740Z,5.05
2023-06-11T07:19:28.014Z,5.10
2023-06-11T07:21:55.360Z,5.35
2023-06-11T07:24:22.695Z,4.93
2023-06-11T07:26:50.050Z,5.10
2023-06-11T07:29:17.284Z,4.45
2023-06-11T07:31:44.490Z,4.60
2023-06-11T07:34:11.732Z,4.70
2023-06-11T07:36:39.503Z,4.35
2023-06-11T07:39:06.747Z,4.28
2023-06-11T07:41:34.056Z,4.25
2023-06-11T07:44:01.256Z,4.72
2023-06-11T07:46:28.550Z,4.20
2023-06-11T07:48:55.828Z,4.10
2023-06-11T07:51:23.058Z,4.10
2023-06-11T07:53:50.999Z,4.03
2023-06-11T07:56:18.242Z,4.03
2023-06-11T07:58:45.846Z,4.10
2023-06-11T08:01:14.377Z,4.03
2023-06-11T08:03:41.850Z,4.30
2023-06-11T08:06:10.411Z,4.20
2023-06-11T08:08:37.743Z,4.20
2023-06-11T08:11:04.993Z,3.65
2023-06-11T08:13:33.903Z,4.00
2023-06-11T08:16:01.046Z,4.18
2023-06-11T08:18:28.340Z,3.78
2023-06-11T08:20:56.154Z,4.00
2023-06-11T08:23:23.403Z,3.80
2023-06-11T08:25:50.544Z,3.70
2023-06-11T08:28:17.820Z,3.85
2023-06-11T08:30:45.036Z,3.53
2023-06-11T08:33:13.747Z,3.50
2023-06-11T08:35:41.130Z,3.72
2023-06-11T08:38:08.447Z,3.85
2023-06-11T08:40:40.708Z,3.63
2023-06-11T08:43:08.435Z,4.10
2023-06-11T08:45:35.854Z,3.80
2023-06-11T08:48:06.954Z,3.70
2023-06-11T08:50:34.282Z,4.50
2023-06-11T08:53:04.218Z,4.43
2023-06-11T08:55:32.059Z,4.20
2023-06-11T08:57:59.470Z,4.47
2023-06-11T09:00:26.728Z,4.22
2023-06-11T09:02:54.709Z,5.53
2023-06-11T09:05:22.679Z,4.97
2023-06-11T09:07:51.051Z,4.85
2023-06-11T09:10:18.331Z,5.05
2023-06-11T09:12:46.433Z,4.78
2023-06-11T09:15:13.995Z,4.85
2023-06-11T09:17:42.765Z,4.70
2023-06-11T09:20:11.695Z,4.55
2023-06-11T09:22:39.829Z,4.40
2023-06-11T09:25:10.179Z,4.60
2023-06-11T09:27:41.198Z,4.75
2023-06-11T09:30:12.521Z,4.63
2023-06-11T09:32:43.825Z,4.35
2023-06-11T09:35:11.515Z,4.10
2023-06-11T09:37:45.874Z,4.40
2023-06-11T09:40:13.943Z,4.57
2023-06-11T09:42:41.986Z,4.47
2023-06-11T09:45:14.834Z,4.45
2023-06-11T09:47:42.419Z,4.78
2023-06-11T09:50:10.529Z,4.65
2023-06-11T09:52:39.294Z,4.15
2023-06-11T09:55:09.302Z,4.60
2023-06-11T09:57:37.671Z,4.63
2023-06-11T10:00:08.297Z,4.38
2023-06-11T10:02:35.688Z,4.43
2023-06-11T10:05:03.474Z,4.60
2023-06-11T10:07:32.435Z,3.75
2023-06-11T10:10:00.344Z,4.40
2023-06-11T10:12:27.575Z,4.50
2023-06-11T10:14:56.204Z,4.00
2023-06-11T10:17:23.929Z,4.38
2023-06-11T10:19:52.874Z,4.10
2023-06-11T10:22:39.377Z,3.70
2023-06-11T10:25:06.770Z,3.97
2023-06-11T10:27:38.129Z,4.00
2023-06-11T10:30:05.948Z,3.70
2023-06-11T10:32:33.937Z,4.00
2023-06-11T10:35:04.486Z,3.50
2023-06-11T10:37:37.829Z,3.95
2023-06-11T10:40:07.178Z,3.83
2023-06-11T10:42:38.512Z,3.83
2023-06-11T10:45:15.242Z,3.72
2023-06-11T10:47:43.930Z,3.55
2023-06-11T10:50:18.255Z,3.70
2023-06-11T10:52:59.294Z,4.22
2023-06-11T10:55:31.734Z,3.72
2023-06-11T10:57:59.664Z,3.75
2023-06-11T11:00:33.967Z,3.80
2023-06-11T11:05:28.777Z,3.90
2023-06-11T11:07:56.219Z,3.58
2023-06-11T11:10:27.258Z,3.83
2023-06-11T11:12:55.004Z,3.65
2023-06-11T11:15:22.421Z,3.53
2023-06-11T11:17:51.503Z,3.40
2023-06-11T11:20:20.475Z,3.92
2023-06-11T11:22:55.447Z,3.40
2023-06-11T11:25:24.109Z,3.85
2023-06-11T11:27:51.324Z,3.55
2023-06-11T11:30:19.108Z,3.97
2023-06-11T11:32:46.514Z,3.78
2023-06-11T11:35:17.987Z,3.83
2023-06-11T11:37:51.621Z,3.95
2023-06-11T11:40:22.912Z,3.70
2023-06-11T11:42:50.547Z,4.22
2023-06-11T11:45:18.391Z,4.10
2023-06-11T11:47:48.115Z,10.93
2023-06-11T11:50:28.695Z,4.88
2023-06-11T11:53:06.604Z,5.60
2023-06-11T11:55:47.903Z,6.82
2023-06-11T11:58:19.471Z,4.40
2023-06-11T12:00:51.946Z,6.65
2023-06-11T12:03:20.093Z,4.97
2023-06-11T12:06:16.990Z,8.25
2023-06-11T12:08:46.169Z,7.47
2023-06-11T12:11:13.558Z,21.73
2023-06-11T12:13:40.921Z,9.00
2023-06-11T12:16:08.233Z,6.03
2023-06-11T12:18:35.491Z,3.90
2023-06-11T12:21:02.811Z,6.30
2023-06-11T12:23:30.109Z,6.65
2023-06-11T12:25:57.458Z,4.15
2023-06-11T12:28:24.871Z,4.45
2023-06-11T12:30:52.637Z,3.92
2023-06-11T12:33:19.936Z,3.67
2023-06-11T12:35:47.238Z,3.72
2023-06-11T12:38:15.806Z,3.88
2023-06-11T12:40:43.689Z,3.70
2023-06-11T12:43:11.677Z,3.70
2023-06-11T12:45:39.079Z,3.70
2023-06-11T12:48:07.035Z,3.60
2023-06-11T12:50:34.358Z,4.38
2023-06-11T12:53:01.800Z,3.75
2023-06-11T12:55:29.077Z,3.65
2023-06-11T12:57:56.270Z,3.88
2023-06-11T13:00:25.568Z,3.53
2023-06-11T13:02:52.814Z,4.03
2023-06-11T13:05:22.590Z,3.42
2023-06-11T13:07:50.028Z,3.28
2023-06-11T13:10:18.127Z,3.53
2023-06-11T13:12:45.426Z,3.55
2023-06-11T13:15:12.647Z,3.70
2023-06-11T13:17:40.283Z,3.75
2023-06-11T13:20:07.830Z,3.60
2023-06-11T13:22:35.145Z,3.83
2023-06-11T13:25:02.524Z,3.78
2023-06-11T13:27:29.814Z,3.58
2023-06-11T13:29:57.237Z,4.03
2023-06-11T13:32:24.753Z,3.38
2023-06-11T13:34:52.810Z,3.88
2023-06-11T13:37:20.645Z,3.60
2023-06-11T13:39:47.869Z,3.30
2023-06-11T13:42:15.198Z,3.60
2023-06-11T13:44:42.419Z,5.05
2023-06-11T13:47:09.874Z,3.65
2023-06-11T13:49:37.173Z,3.72
2023-06-11T13:52:04.446Z,3.50
2023-06-11T13:54:34.207Z,3.50
2023-06-11T13:57:02.281Z,3.30
2023-06-11T13:59:29.477Z,3.53
2023-06-11T14:02:02.169Z,3.33
2023-06-11T14:04:30.035Z,3.22
2023-06-11T14:06:57.729Z,2.90
2023-06-11T14:09:24.929Z,3.25
2023-06-11T14:11:52.332Z,3.65
2023-06-11T14:14:21.313Z,3.40
2023-06-11T14:16:50.107Z,3.28
2023-06-11T14:19:17.543Z,3.30
2023-06-11T14:21:44.886Z,3.42
2023-06-11T14:24:12.198Z,3.33
2023-06-11T14:26:40.169Z,2.92
2023-06-11T14:29:07.647Z,3.40
2023-06-11T14:31:36.193Z,3.17
2023-06-11T14:34:03.845Z,3.28
2023-06-11T14:36:31.428Z,3.38
2023-06-11T14:38:59.454Z,3.00
2023-06-11T14:41:27.312Z,3.38
2023-06-11T14:43:54.546Z,3.00
2023-06-11T14:46:22.828Z,3.20
2023-06-11T14:48:50.812Z,3.45
2023-06-11T14:51:17.983Z,3.65
2023-06-11T14:53:45.190Z,3.35
2023-06-11T14:56:12.347Z,3.47
2023-06-11T14:58:39.569Z,3.00
2023-06-11T15:01:06.836Z,2.95
2023-06-11T15:03:34.047Z,3.33
2023-06-11T15:06:01.860Z,3.20
2023-06-11T15:08:29.261Z,3.08
2023-06-11T15:10:56.498Z,3.30
2023-06-11T15:13:24.070Z,3.45
2023-06-11T15:15:52.492Z,3.88
2023-06-11T15:18:19.867Z,3.40
2023-06-11T15:20:47.076Z,2.88
2023-06-11T15:23:14.334Z,3.33
2023-06-11T15:25:41.608Z,3.45
2023-06-11T15:28:09.066Z,3.20
2023-06-11T15:30:36.209Z,3.60
2023-06-11T15:33:03.499Z,3.13
2023-06-11T15:35:30.957Z,3.20
2023-06-11T15:37:58.175Z,3.20
2023-06-11T15:40:25.707Z,3.35
2023-06-11T15:42:53.810Z,3.40
2023-06-11T15:45:21.032Z,3.25
2023-06-11T15:47:48.384Z,3.30
2023-06-11T15:50:15.998Z,3.15
2023-06-11T15:52:43.278Z,3.42
2023-06-11T15:55:13.289Z,3.63
2023-06-11T15:57:40.915Z,3.70
2023-06-11T16:00:08.487Z,3.50
2023-06-11T16:02:35.747Z,3.35
2023-06-11T16:05:03.021Z,3.35
2023-06-11T16:07:30.327Z,3.47
2023-06-11T16:09:58.081Z,3.50
2023-06-11T16:12:25.296Z,3.47
2023-06-11T16:14:52.515Z,3.30
2023-06-11T16:17:20.765Z,3.58
2023-06-11T16:19:48.054Z,3.53
2023-06-11T16:22:15.336Z,3.25
2023-06-11T16:24:42.889Z,3.80
2023-06-11T16:27:10.081Z,3.60
2023-06-11T16:29:37.401Z,3.20
2023-06-11T16:32:04.785Z,3.47
2023-06-11T16:34:32.097Z,3.20
2023-06-11T16:36:59.322Z,3.42
2023-06-11T16:39:28.495Z,3.50
2023-06-11T16:41:57.110Z,3.55
2023-06-11T16:44:24.346Z,3.63
2023-06-11T16:46:51.947Z,3.28
2023-06-11T16:49:19.749Z,3.88
2023-06-11T16:51:47.630Z,3.58
2023-06-11T16:54:18.361Z,3.65
2023-06-11T16:56:46.015Z,3.47
2023-06-11T16:59:13.380Z,3.22
2023-06-11T17:01:40.615Z,3.65
2023-06-11T17:04:07.874Z,3.55
2023-06-11T17:06:35.202Z,3.65
2023-06-11T17:09:02.425Z,3.45
2023-06-11T17:11:29.796Z,3.90
2023-06-11T17:13:57.179Z,3.75
2023-06-11T17:16:24.707Z,3.92
2023-06-11T17:18:51.965Z,3.80
2023-06-11T17:21:19.174Z,3.70
2023-06-11T17:23:46.419Z,3.58
2023-06-11T17:26:16.415Z,3.90
2023-06-11T17:28:44.709Z,3.90
2023-06-11T17:31:14.161Z,3.45
2023-06-11T17:33:41.536Z,3.97
2023-06-11T17:36:09.503Z,4.10
2023-06-11T17:38:36.768Z,3.60
2023-06-11T17:41:04.024Z,4.10
2023-06-11T17:43:31.219Z,3.47
2023-06-11T17:45:58.472Z,3.70
2023-06-11T17:48:25.866Z,4.07
2023-06-11T17:50:53.097Z,3.90
2023-06-11T17:53:20.802Z,3.90
2023-06-11T17:55:50.476Z,3.75
2023-06-11T17:58:18.121Z,3.80
2023-06-11T18:00:45.627Z,3.72
2023-06-11T18:03:12.911Z,3.65
2023-06-11T18:05:40.235Z,3.85
2023-06-11T18:08:07.437Z,3.72
2023-06-11T18:10:34.945Z,3.78
2023-06-11T18:13:03.570Z,3.80
2023-06-11T18:15:32.905Z,3.67
2023-06-11T18:18:01.876Z,3.53
2023-06-11T18:20:30.054Z,3.83
2023-06-11T18:22:57.623Z,4.13
2023-06-11T18:25:26.416Z,3.60
2023-06-11T18:27:54.224Z,3.92
2023-06-11T18:30:22.419Z,3.88
2023-06-11T18:32:50.279Z,4.10
2023-06-11T18:35:20.888Z,3.97
2023-06-11T18:37:48.443Z,3.85
2023-06-11T18:40:16.584Z,4.00
2023-06-11T18:42:43.922Z,3.67
2023-06-11T18:45:11.366Z,4.07
2023-06-11T18:47:40.454Z,4.30
2023-06-11T18:50:10.431Z,4.40
2023-06-11T18:52:38.478Z,4.10
2023-06-11T18:55:05.865Z,3.85
2023-06-11T18:57:33.096Z,3.80
2023-06-11T19:00:00.608Z,4.20
2023-06-11T19:02:28.208Z,3.83
2023-06-11T19:04:55.646Z,3.83
2023-06-11T19:07:24.014Z,3.88
2023-06-11T19:09:51.335Z,3.85
2023-06-11T19:12:18.673Z,3.63
2023-06-11T19:14:46.241Z,3.67
2023-06-11T19:17:13.610Z,4.25
2023-06-11T19:19:40.982Z,3.58
2023-06-11T19:22:08.487Z,3.65
2023-06-11T19:24:36.171Z,4.30
2023-06-11T19:27:03.502Z,4.43
2023-06-11T19:29:32.950Z,4.10
2023-06-11T19:32:00.493Z,4.43
2023-06-11T19:34:27.728Z,4.05
2023-06-11T19:36:54.983Z,4.07
2023-06-11T19:39:22.188Z,4.07
2023-06-11T19:41:49.400Z,4.43
2023-06-11T19:44:16.822Z,4.20
2023-06-11T19:46:44.935Z,4.32
2023-06-11T19:49:12.804Z,3.92
2023-06-11T19:51:40.716Z,4.50
2023-06-11T19:54:08.661Z,3.97
2023-06-11T19:56:36.148Z,4.32
2023-06-11T19:59:03.384Z,3.88
2023-06-11T20:01:30.620Z,4.07
2023-06-11T20:03:57.877Z,4.47
2023-06-11T20:06:25.054Z,3.92
2023-06-11T20:08:53.988Z,4.40
2023-06-11T20:11:22.365Z,3.97
2023-06-11T20:13:49.632Z,3.78
2023-06-11T20:16:16.933Z,4.30
2023-06-11T20:18:44.392Z,4.10
2023-06-11T20:21:11.566Z,4.15
2023-06-11T20:23:39.055Z,4.05
2023-06-11T20:26:06.626Z,3.97
2023-06-11T20:28:34.117Z,4.43
2023-06-11T20:31:05.142Z,3.95
2023-06-11T20:33:32.888Z,4.05
2023-06-11T20:36:00.186Z,4.03
2023-06-11T20:38:27.430Z,4.57
2023-06-11T20:40:54.863Z,4.20
2023-06-11T20:43:22.088Z,4.55
2023-06-11T20:45:57.661Z,3.53
2023-06-11T20:48:26.360Z,4.60
2023-06-11T20:50:53.950Z,4.50
2023-06-11T20:53:33.110Z,4.43
2023-06-11T20:56:01.939Z,4.03
2023-06-11T20:58:29.168Z,4.30
2023-06-11T21:00:56.395Z,4.10
2023-06-11T21:03:23.867Z,4.13
2023-06-11T21:05:51.769Z,3.83
2023-06-11T21:08:19.280Z,4.07
2023-06-11T21:10:46.912Z,4.35
2023-06-11T21:13:14.342Z,4.47
2023-06-11T21:15:41.653Z,4.25
2023-06-11T21:18:09.068Z,4.45
2023-06-11T21:20:37.556Z,4.15
2023-06-11T21:23:04.821Z,4.13
2023-06-11T21:25:32.027Z,4.03
2023-06-11T21:27:59.226Z,4.25
2023-06-11T21:30:26.939Z,3.88
2023-06-11T21:32:54.218Z,4.47
2023-06-11T21:35:21.571Z,4.38
2023-06-11T21:37:48.757Z,4.72
2023-06-11T21:40:16.097Z,4.53
2023-06-11T21:42:43.370Z,4.30
2023-06-11T21:45:10.750Z,4.45
2023-06-11T21:47:38.063Z,4.18
2023-06-11T21:50:06.939Z,4.05
2023-06-11T21:52:38.292Z,4.10
2023-06-11T21:55:06.950Z,4.35
2023-06-11T21:57:34.225Z,4.10
2023-06-11T22:00:07.294Z,4.40
2023-06-11T22:02:34.516Z,4.57
2023-06-11T22:05:01.990Z,4.03
2023-06-11T22:07:30.143Z,4.50
2023-06-11T22:09:57.322Z,4.63
2023-06-11T22:12:24.786Z,4.35
2023-06-11T22:14:52.112Z,4.70
2023-06-11T22:17:22.255Z,4.30
2023-06-11T22:19:50.995Z,4.15
2023-06-11T22:22:18.284Z,4.93
2023-06-11T22:24:46.163Z,4.47
2023-06-11T22:27:15.451Z,5.20
2023-06-11T22:29:42.678Z,4.53
2023-06-11T22:32:10.473Z,4.78
2023-06-11T22:34:37.656Z,4.50
2023-06-11T22:37:04.928Z,4.60
2023-06-11T22:39:32.078Z,4.72
2023-06-11T22:41:59.287Z,4.43
2023-06-11T22:44:26.616Z,4.30
2023-06-11T22:46:53.874Z,4.85
2023-06-11T22:49:21.085Z,4.53
2023-06-11T22:51:51.576Z,4.82
2023-06-11T22:54:18.758Z,4.75
2023-06-11T22:56:46.551Z,4.53
2023-06-11T22:59:16.029Z,4.57
2023-06-11T23:01:43.291Z,4.22
2023-06-11T23:04:10.556Z,4.93
2023-06-11T23:06:46.319Z,4.80
2023-06-11T23:09:20.879Z,4.50
2023-06-11T23:11:48.804Z,5.00
2023-06-11T23:14:17.101Z,4.32
2023-06-11T23:16:49.089Z,5.13
2023-06-11T23:19:26.039Z,4.38
2023-06-11T23:21:57.470Z,4.60
2023-06-11T23:24:27.780Z,4.80
2023-06-11T23:27:01.818Z,4.35
2023-06-11T23:29:33.651Z,5.07
2023-06-11T23:32:01.529Z,4.32
2023-06-11T23:34:28.745Z,4.30
2023-06-11T23:36:56.009Z,4.50
2023-06-11T23:39:24.380Z,4.82
2023-06-11T23:41:51.635Z,4.80
2023-06-11T23:44:18.895Z,4.72
2023-06-11T23:46:46.231Z,4.75
2023-06-11T23:49:13.488Z,4.97
2023-06-11T23:51:42.223Z,4.85
2023-06-11T23:54:09.485Z,4.63
2023-06-11T23:56:36.690Z,4.82
2023-06-11T23:59:04.025Z,5.15
